Overview Statistics Trail Chart Weather Telemetry Raw packets
 

This is the latest recevied weather packets stored in our database for station/object SV3AQT-13. If no packets are shown the sender has not sent any weather packets the latest 10 day(s).

<< 10 11 12 13 14 15 16 >>
Time Temp. Humidity Pressure Rain* Wind** Luminosity Snow
1788565802 21.11° C 69% 1018.2 hPa 0 mm 0 m/s - -
1788565621 21.67° C 67% 1018.2 hPa 0 mm 0 m/s - -
1788565442 21.67° C 66% 1018.2 hPa 0 mm 0 m/s - -
1788565262 21.67° C 66% 1018.2 hPa 0 mm 0 m/s - -
1788565083 21.67° C 67% 1018.2 hPa 0 mm 0 m/s - -
1788564902 21.11° C 68% 1018.2 hPa 0 mm 0 m/s - -
1788564722 20.56° C 71% 1018.2 hPa 0 mm 0 m/s - -
1788564542 20.56° C 71% 1018.2 hPa 0 mm 0 m/s - -
1788564361 20° C 73% 1018.2 hPa 0 mm 0 m/s - -
1788564182 20° C 74% 1018.9 hPa 0 mm 0 m/s - -
1788564001 20° C 74% 1018.9 hPa 0 mm 0 m/s - -
1788563822 20° C 74% 1018.9 hPa 0 mm 0 m/s - -
1788563641 20.56° C 73% 1018.9 hPa 0 mm 0 m/s - -
1788563462 20.56° C 73% 1018.9 hPa 0 mm 0 m/s - -
1788563282 20.56° C 72% 1018.9 hPa 0 mm 0 m/s - -
1788563102 20° C 75% 1018.9 hPa 0 mm 0 m/s - -
1788562924 20° C 76% 1018.9 hPa 0 mm 0 m/s - -
1788562741 20° C 76% 1018.9 hPa 0 mm 0 m/s - -
1788562561 20° C 76% 1018.9 hPa 0 mm 0 m/s - -
1788562382 19.44° C 76% 1018.9 hPa 0 mm 0 m/s - -
1788562202 20° C 77% 1018.9 hPa 0 mm 0 m/s - -
1788562022 19.44° C 77% 1019.3 hPa 0 mm 0 m/s - -
1788561843 19.44° C 78% 1019.3 hPa 0 mm 0 m/s - -
1788561662 20° C 77% 1019.3 hPa 0 mm 0 m/s - -
1788561481 20° C 76% 1019.3 hPa 0 mm 0 m/s - -

* Rain latest hour (hover to see other rain measurements)
** Current wind speed in m/s (hover to see current wind gust speed)